createdAt,value
2023-04-14T00:01:17.547Z,10.50
2023-04-14T00:03:45.485Z,10.47
2023-04-14T00:06:12.832Z,10.74
2023-04-14T00:08:39.913Z,10.83
2023-04-14T00:11:07.015Z,10.76
2023-04-14T00:13:34.247Z,10.65
2023-04-14T00:16:01.498Z,10.76
2023-04-14T00:18:28.713Z,10.79
2023-04-14T00:20:55.818Z,11.04
2023-04-14T00:23:22.929Z,11.04
2023-04-14T00:25:51.193Z,10.98
2023-04-14T00:28:18.384Z,10.76
2023-04-14T00:30:47.271Z,10.77
2023-04-14T00:33:14.356Z,10.90
2023-04-14T00:35:41.497Z,11.00
2023-04-14T00:38:08.605Z,10.95
2023-04-14T00:40:35.696Z,10.77
2023-04-14T00:43:02.797Z,10.74
2023-04-14T00:45:29.961Z,10.75
2023-04-14T00:47:58.632Z,11.00
2023-04-14T00:50:26.246Z,10.96
2023-04-14T00:52:53.782Z,10.91
2023-04-14T00:55:21.539Z,10.66
2023-04-14T00:57:49.815Z,10.74
2023-04-14T01:00:17.201Z,11.01
2023-04-14T01:02:44.663Z,11.02
2023-04-14T01:05:12.473Z,11.00
2023-04-14T01:07:40.714Z,10.94
2023-04-14T01:10:11.660Z,10.94
2023-04-14T01:13:23.685Z,10.69
2023-04-14T01:16:01.484Z,10.62
2023-04-14T01:18:41.288Z,10.80
2023-04-14T01:21:17.914Z,11.08
2023-04-14T01:24:17.021Z,11.06
2023-04-14T01:26:45.722Z,10.87
2023-04-14T01:29:54.214Z,10.90
2023-04-14T01:32:24.180Z,11.05
2023-04-14T01:34:56.869Z,10.69
2023-04-14T01:37:32.298Z,10.85
2023-04-14T01:40:03.805Z,10.69
2023-04-14T01:42:36.285Z,10.49
2023-04-14T01:45:21.149Z,10.76
2023-04-14T01:47:49.054Z,10.93
2023-04-14T01:50:19.515Z,10.97
2023-04-14T01:52:51.553Z,10.74
2023-04-14T01:55:20.914Z,10.69
2023-04-14T01:57:51.250Z,10.75
2023-04-14T02:00:20.731Z,11.05
2023-04-14T02:02:52.466Z,11.12
2023-04-14T02:05:21.446Z,11.05
2023-04-14T02:07:52.747Z,10.94
2023-04-14T02:10:53.092Z,11.04
2023-04-14T02:13:22.269Z,10.85
2023-04-14T02:15:54.064Z,11.09
2023-04-14T02:18:23.566Z,10.53
2023-04-14T02:20:53.471Z,10.68
2023-04-14T02:23:20.635Z,10.57
2023-04-14T02:25:56.251Z,10.54
2023-04-14T02:28:28.721Z,10.63
2023-04-14T02:30:59.523Z,10.96
2023-04-14T02:33:31.835Z,11.03
2023-04-14T02:36:13.353Z,10.98
2023-04-14T02:38:47.940Z,10.78
2023-04-14T02:41:25.081Z,10.86
2023-04-14T02:44:07.575Z,11.09
2023-04-14T02:46:41.249Z,11.09
2023-04-14T02:49:13.620Z,11.02
2023-04-14T02:51:44.073Z,10.84
2023-04-14T02:54:14.334Z,10.79
2023-04-14T02:56:46.072Z,11.00
2023-04-14T02:59:13.929Z,11.13
2023-04-14T03:01:54.252Z,11.07
2023-04-14T03:04:23.062Z,10.85
2023-04-14T03:06:51.511Z,10.84
2023-04-14T03:09:20.489Z,10.87
2023-04-14T03:11:47.983Z,11.15
2023-04-14T03:14:18.244Z,11.15
2023-04-14T03:16:46.664Z,11.08
2023-04-14T03:19:14.884Z,11.01
2023-04-14T03:21:46.849Z,11.02
2023-04-14T03:24:19.300Z,11.00
2023-04-14T03:26:49.503Z,11.01
2023-04-14T03:29:20.164Z,10.76
2023-04-14T03:31:48.317Z,10.82
2023-04-14T03:34:16.781Z,10.92
2023-04-14T03:36:51.108Z,10.93
2023-04-14T03:39:20.394Z,10.91
2023-04-14T03:41:51.823Z,11.00
2023-04-14T03:44:21.824Z,11.08
2023-04-14T03:46:51.363Z,11.08
2023-04-14T03:49:21.416Z,11.13
2023-04-14T03:52:23.065Z,11.17
2023-04-14T03:54:53.518Z,11.23
2023-04-14T03:57:23.403Z,11.09
2023-04-14T03:59:52.428Z,11.24
2023-04-14T04:02:24.393Z,11.19
2023-04-14T04:04:53.440Z,11.23
2023-04-14T04:07:21.630Z,11.26
2023-04-14T04:09:50.770Z,11.24
2023-04-14T04:12:21.078Z,11.20
2023-04-14T04:14:48.522Z,11.25
2023-04-14T04:17:19.688Z,11.34
2023-04-14T04:19:48.813Z,11.40
2023-04-14T04:22:20.517Z,11.36
2023-04-14T04:24:53.881Z,11.23
2023-04-14T04:27:28.403Z,11.69
2023-04-14T04:30:08.138Z,11.67
2023-04-14T04:32:38.589Z,11.65
2023-04-14T04:35:07.494Z,11.73
2023-04-14T04:37:37.963Z,11.79
2023-04-14T04:40:38.665Z,11.78
2023-04-14T04:43:12.164Z,11.84
2023-04-14T04:46:04.445Z,12.16
2023-04-14T04:48:31.907Z,12.18
2023-04-14T04:50:59.164Z,12.12
2023-04-14T04:53:26.368Z,12.14
2023-04-14T04:55:53.434Z,12.17
2023-04-14T04:58:20.583Z,12.20
2023-04-14T05:01:56.979Z,11.99
2023-04-14T05:04:24.258Z,11.88
2023-04-14T05:06:52.124Z,12.17
2023-04-14T05:09:19.191Z,12.30
2023-04-14T05:11:46.462Z,12.49
2023-04-14T05:14:13.525Z,12.33
2023-04-14T05:17:12.226Z,12.46
2023-04-14T05:19:39.562Z,12.49
2023-04-14T05:22:06.599Z,12.44
2023-04-14T05:24:33.667Z,12.66
2023-04-14T05:27:13.665Z,12.63
2023-04-14T05:29:41.904Z,12.98
2023-04-14T05:32:10.814Z,13.09
2023-04-14T05:34:37.908Z,13.08
2023-04-14T05:37:05.040Z,13.06
2023-04-14T05:39:32.090Z,13.39
2023-04-14T05:42:02.223Z,13.59
2023-04-14T05:44:29.320Z,13.51
2023-04-14T05:46:56.592Z,13.44
2023-04-14T05:49:23.876Z,13.38
2023-04-14T05:51:51.158Z,13.55
2023-04-14T05:54:18.236Z,13.89
2023-04-14T05:56:45.488Z,13.86
2023-04-14T05:59:12.752Z,13.78
2023-04-14T06:01:39.909Z,13.60
2023-04-14T06:04:07.421Z,13.67
2023-04-14T06:06:35.216Z,14.15
2023-04-14T06:09:02.514Z,14.04
2023-04-14T06:11:29.684Z,14.05
2023-04-14T06:13:56.837Z,14.01
2023-04-14T06:16:23.978Z,14.21
2023-04-14T06:18:51.110Z,14.18
2023-04-14T06:21:50.387Z,14.45
2023-04-14T06:24:17.507Z,14.30
2023-04-14T06:26:44.643Z,14.24
2023-04-14T06:29:12.116Z,14.06
2023-04-14T06:32:11.093Z,14.39
2023-04-14T06:34:38.301Z,14.17
2023-04-14T06:37:05.459Z,14.19
2023-04-14T06:39:32.551Z,13.90
2023-04-14T06:41:59.665Z,14.00
2023-04-14T06:44:26.924Z,13.98
2023-04-14T06:46:55.304Z,14.11
2023-04-14T06:49:24.424Z,14.14
2023-04-14T06:51:51.604Z,14.18
2023-04-14T06:54:18.721Z,14.19
2023-04-14T06:56:46.189Z,14.24
2023-04-14T06:59:46.721Z,14.52
2023-04-14T07:02:13.942Z,14.50
2023-04-14T07:04:41.325Z,14.56
2023-04-14T07:07:08.410Z,14.70
2023-04-14T07:09:35.688Z,14.81
2023-04-14T07:12:03.016Z,15.21
2023-04-14T07:14:31.797Z,15.02
2023-04-14T07:16:58.966Z,15.21
2023-04-14T07:19:26.211Z,15.09
2023-04-14T07:21:53.375Z,15.39
2023-04-14T07:24:20.619Z,15.67
2023-04-14T07:26:47.854Z,15.80
2023-04-14T07:29:15.061Z,15.94
2023-04-14T07:31:42.925Z,16.18
2023-04-14T07:34:10.074Z,16.10
2023-04-14T07:36:37.397Z,16.23
2023-04-14T07:39:04.760Z,15.86
2023-04-14T07:41:32.043Z,15.80
2023-04-14T07:44:00.422Z,15.82
2023-04-14T07:46:28.058Z,15.90
2023-04-14T07:48:55.250Z,15.93
2023-04-14T07:51:22.741Z,15.97
2023-04-14T07:53:51.203Z,15.98
2023-04-14T07:56:22.049Z,16.23
2023-04-14T07:58:49.138Z,16.27
2023-04-14T08:01:17.154Z,16.36
2023-04-14T08:03:45.565Z,16.62
2023-04-14T08:06:13.468Z,16.72
2023-04-14T08:08:40.630Z,16.76
2023-04-14T08:11:07.915Z,17.14
2023-04-14T08:13:35.023Z,17.13
2023-04-14T08:16:02.220Z,17.01
2023-04-14T08:18:29.451Z,17.10
2023-04-14T08:20:56.808Z,17.24
2023-04-14T08:23:24.236Z,17.48
2023-04-14T08:25:51.686Z,17.08
2023-04-14T08:28:18.850Z,17.21
2023-04-14T08:30:47.832Z,17.42
2023-04-14T08:33:15.125Z,17.57
2023-04-14T08:35:43.349Z,17.61
2023-04-14T08:38:11.316Z,17.82
2023-04-14T08:40:43.852Z,17.66
2023-04-14T08:43:13.702Z,17.66
2023-04-14T08:45:43.267Z,17.76
2023-04-14T08:48:15.657Z,17.98
2023-04-14T08:51:07.422Z,17.67
2023-04-14T08:53:42.899Z,17.74
2023-04-14T08:56:13.315Z,17.87
2023-04-14T08:58:42.098Z,18.17
2023-04-14T09:01:09.876Z,18.35
2023-04-14T09:03:38.300Z,18.35
2023-04-14T09:06:06.569Z,18.50
2023-04-14T09:08:34.868Z,18.51
2023-04-14T09:11:03.695Z,18.59
2023-04-14T09:13:32.131Z,18.44
2023-04-14T09:16:00.331Z,18.25
2023-04-14T09:18:28.726Z,18.43
2023-04-14T09:21:50.818Z,18.48
2023-04-14T09:23:46.939Z,18.70
2023-04-14T09:26:14.357Z,18.58
2023-04-14T09:28:41.501Z,18.58
2023-04-14T09:31:10.090Z,18.65
2023-04-14T09:33:44.537Z,19.09
2023-04-14T09:36:26.089Z,19.44
2023-04-14T09:38:53.283Z,19.55
2023-04-14T09:41:28.448Z,19.73
2023-04-14T09:43:55.833Z,19.59
2023-04-14T10:17:28.574Z,18.54
2023-04-14T10:19:56.870Z,19.04
2023-04-14T10:22:27.876Z,19.27
2023-04-14T10:24:56.365Z,19.76
2023-04-14T10:27:44.144Z,20.08
2023-04-14T10:30:12.261Z,19.72
2023-04-14T10:32:40.885Z,19.58
2023-04-14T10:35:12.760Z,19.79
2023-04-14T10:37:39.985Z,20.00
2023-04-14T10:40:08.232Z,19.95
2023-04-14T10:42:55.127Z,20.18
2023-04-14T10:45:22.740Z,20.13
2023-04-14T10:47:50.994Z,20.54
2023-04-14T10:50:22.311Z,20.55
2023-04-14T10:52:56.937Z,20.91
2023-04-14T10:55:26.054Z,21.33
2023-04-14T10:57:54.750Z,21.33
2023-04-14T11:00:23.651Z,21.48
2023-04-14T11:03:20.252Z,21.45
2023-04-14T11:05:53.481Z,21.61
2023-04-14T11:08:28.168Z,21.27
2023-04-14T11:11:03.082Z,21.05
2023-04-14T11:13:31.559Z,20.89
2023-04-14T11:16:02.073Z,21.46
2023-04-14T11:18:33.373Z,21.45
2023-04-14T11:21:04.968Z,21.64
2023-04-14T11:23:33.215Z,21.45
2023-04-14T11:26:00.620Z,21.22
2023-04-14T11:28:38.500Z,20.98
2023-04-14T11:31:08.561Z,20.59
2023-04-14T11:33:38.353Z,20.50
2023-04-14T11:36:07.796Z,20.51
2023-04-14T11:38:36.326Z,20.38
2023-04-14T11:41:04.559Z,20.61
2023-04-14T11:43:31.996Z,20.48
2023-04-14T11:46:14.808Z,20.87
2023-04-14T11:48:42.309Z,20.58
2023-04-14T11:51:09.519Z,20.41
2023-04-14T11:53:36.735Z,20.26
2023-04-14T11:56:08.817Z,20.54
2023-04-14T11:58:35.991Z,20.65
2023-04-14T12:01:03.208Z,20.60
2023-04-14T12:03:35.899Z,20.69
2023-04-14T12:06:03.988Z,20.75
2023-04-14T12:08:32.302Z,21.20
2023-04-14T12:11:13.398Z,21.43
2023-04-14T12:13:41.896Z,21.68
2023-04-14T12:16:09.804Z,21.78
2023-04-14T12:18:36.999Z,21.39
2023-04-14T12:21:07.323Z,21.07
2023-04-14T12:23:40.854Z,21.18
2023-04-14T12:26:12.295Z,20.96
2023-04-14T12:28:41.680Z,21.02
2023-04-14T12:31:09.927Z,21.08
2023-04-14T12:33:37.559Z,20.94
2023-04-14T12:36:12.309Z,20.92
2023-04-14T12:38:39.974Z,20.81
2023-04-14T12:41:07.262Z,20.85
2023-04-14T12:43:36.587Z,21.26
2023-04-14T12:46:04.908Z,21.33
2023-04-14T12:48:46.158Z,21.54
2023-04-14T12:51:18.112Z,21.26
2023-04-14T12:53:47.107Z,21.38
2023-04-14T12:56:22.748Z,21.35
2023-04-14T12:58:51.464Z,20.94
2023-04-14T13:01:21.073Z,20.81
2023-04-14T13:03:51.942Z,20.58
2023-04-14T13:06:24.221Z,20.54
2023-04-14T13:08:53.305Z,20.72
2023-04-14T13:11:21.900Z,20.93
2023-04-14T13:13:49.131Z,20.95
2023-04-14T13:16:18.710Z,21.03
2023-04-14T13:18:48.961Z,21.09
2023-04-14T13:21:16.687Z,20.90
2023-04-14T13:23:44.422Z,20.97
2023-04-14T13:26:12.702Z,20.76
2023-04-14T13:28:39.837Z,20.75
2023-04-14T13:31:07.476Z,20.90
2023-04-14T13:33:34.697Z,20.96
2023-04-14T13:36:03.042Z,21.12
2023-04-14T13:38:31.151Z,20.86
2023-04-14T13:40:58.537Z,20.85
2023-04-14T13:43:26.478Z,20.76
2023-04-14T13:45:57.867Z,20.88
2023-04-14T13:48:25.492Z,21.19
2023-04-14T13:50:53.508Z,20.92
2023-04-14T13:53:20.690Z,21.06
2023-04-14T13:55:47.839Z,20.85
2023-04-14T13:58:14.919Z,21.28
2023-04-14T14:00:42.086Z,21.12
2023-04-14T14:03:09.402Z,20.85
2023-04-14T14:06:08.795Z,20.58
2023-04-14T14:08:39.216Z,20.61
2023-04-14T14:11:06.887Z,20.64
2023-04-14T14:13:38.819Z,20.52
2023-04-14T14:16:07.515Z,20.49
2023-04-14T14:18:37.514Z,20.50
2023-04-14T14:21:05.202Z,20.69
2023-04-14T14:23:32.528Z,20.77
2023-04-14T14:26:00.909Z,20.61
2023-04-14T14:28:28.268Z,20.66
2023-04-14T14:30:55.966Z,20.74
2023-04-14T14:33:23.289Z,20.81
2023-04-14T14:35:51.079Z,20.67
2023-04-14T14:38:18.203Z,20.58
2023-04-14T14:40:45.236Z,20.47
2023-04-14T14:43:12.428Z,20.33
2023-04-14T14:45:39.553Z,20.57
2023-04-14T14:48:06.694Z,20.27
2023-04-14T14:50:33.821Z,20.28
2023-04-14T14:53:00.927Z,20.05
2023-04-14T14:55:27.992Z,20.13
2023-04-14T14:57:55.162Z,20.34
2023-04-14T15:00:23.639Z,20.04
2023-04-14T15:02:51.008Z,19.70
2023-04-14T15:05:18.504Z,19.62
2023-04-14T15:07:45.631Z,19.94
2023-04-14T15:10:12.866Z,19.71
2023-04-14T15:12:40.008Z,19.58
2023-04-14T15:15:07.840Z,19.60
2023-04-14T15:17:35.199Z,19.67
2023-04-14T15:20:05.142Z,19.71
2023-04-14T15:22:32.719Z,19.22
2023-04-14T15:24:59.802Z,19.25
2023-04-14T15:27:27.099Z,19.35
2023-04-14T15:29:54.888Z,19.46
2023-04-14T15:32:25.446Z,19.31
2023-04-14T15:34:54.649Z,19.16
2023-04-14T15:37:21.874Z,19.20
2023-04-14T15:39:49.006Z,19.20
2023-04-14T15:42:16.163Z,19.22
2023-04-14T15:44:43.186Z,19.08
2023-04-14T15:47:10.428Z,18.93
2023-04-14T15:49:37.559Z,19.09
2023-04-14T15:52:06.016Z,19.02
2023-04-14T15:54:33.875Z,18.96
2023-04-14T15:57:02.491Z,18.77
2023-04-14T15:59:29.941Z,18.84
2023-04-14T16:01:57.283Z,18.77
2023-04-14T16:04:25.645Z,18.32
2023-04-14T16:06:54.257Z,18.28
2023-04-14T16:09:21.357Z,18.53
2023-04-14T16:11:48.628Z,18.44
2023-04-14T16:14:16.010Z,18.46
2023-04-14T16:16:47.190Z,18.33
2023-04-14T16:23:04.670Z,17.91
2023-04-14T16:25:31.893Z,18.12
2023-04-14T16:27:59.138Z,17.93
2023-04-14T16:30:26.253Z,17.77
2023-04-14T16:32:53.461Z,17.71
2023-04-14T16:35:20.693Z,17.67
2023-04-14T16:37:47.778Z,17.67
2023-04-14T16:40:14.934Z,17.67
2023-04-14T16:42:42.119Z,17.52
2023-04-14T16:45:09.551Z,17.48
2023-04-14T16:47:36.735Z,17.55
2023-04-14T16:50:04.051Z,17.66
2023-04-14T16:52:31.237Z,17.51
2023-04-14T16:54:59.459Z,17.37
2023-04-14T16:57:27.497Z,17.42
2023-04-14T17:01:04.421Z,17.45
2023-04-14T17:03:31.924Z,17.30
2023-04-14T17:05:59.175Z,17.02
2023-04-14T17:08:26.749Z,16.89
2023-04-14T17:10:53.814Z,16.99
2023-04-14T17:13:21.537Z,17.13
2023-04-14T17:15:58.757Z,16.94
2023-04-14T17:18:33.720Z,16.94
2023-04-14T17:21:01.169Z,16.66
2023-04-14T17:23:28.317Z,16.81
2023-04-14T17:25:57.278Z,16.75
2023-04-14T17:28:26.771Z,16.55
2023-04-14T17:30:54.016Z,16.55
2023-04-14T17:33:22.142Z,16.55
2023-04-14T17:35:49.372Z,16.68
2023-04-14T17:38:16.548Z,16.60
2023-04-14T17:40:43.695Z,16.48
2023-04-14T17:43:10.908Z,16.40
2023-04-14T17:45:40.227Z,16.28
2023-04-14T17:48:08.204Z,16.42
2023-04-14T17:50:35.945Z,16.29
2023-04-14T17:53:03.077Z,16.22
2023-04-14T17:55:30.278Z,16.15
2023-04-14T17:57:57.857Z,16.48
2023-04-14T18:00:25.018Z,16.35
2023-04-14T18:02:52.389Z,16.34
2023-04-14T18:05:19.467Z,16.18
2023-04-14T18:07:47.081Z,16.24
2023-04-14T18:10:14.204Z,16.12
2023-04-14T18:12:43.074Z,16.07
2023-04-14T18:15:15.384Z,15.87
2023-04-14T18:17:43.442Z,15.96
2023-04-14T18:20:11.204Z,16.02
2023-04-14T18:22:39.381Z,15.42
2023-04-14T18:25:08.384Z,15.50
2023-04-14T18:28:07.304Z,15.66
2023-04-14T18:30:34.607Z,15.39
2023-04-14T18:33:01.753Z,15.20
2023-04-14T18:35:29.605Z,15.26
2023-04-14T18:37:56.779Z,15.43
2023-04-14T18:40:24.471Z,15.35
2023-04-14T18:42:54.363Z,15.17
2023-04-14T18:45:21.881Z,15.08
2023-04-14T18:47:50.047Z,15.25
2023-04-14T18:50:17.345Z,15.35
2023-04-14T18:52:44.509Z,15.19
2023-04-14T18:55:11.572Z,15.11
2023-04-14T18:57:38.649Z,15.46
2023-04-14T19:00:06.597Z,15.37
2023-04-14T19:02:34.807Z,15.32
2023-04-14T19:05:02.616Z,15.37
2023-04-14T19:07:29.887Z,15.18
2023-04-14T19:09:57.013Z,15.42
2023-04-14T19:12:28.614Z,15.52
2023-04-14T19:14:56.124Z,15.13
2023-04-14T19:17:23.337Z,15.00
2023-04-14T19:19:50.550Z,15.26
2023-04-14T19:22:17.769Z,15.09
2023-04-14T19:24:45.055Z,15.08
2023-04-14T19:27:12.137Z,15.18
2023-04-14T19:29:39.291Z,14.71
2023-04-14T19:32:06.416Z,14.84
2023-04-14T19:34:33.505Z,14.95
2023-04-14T19:37:00.730Z,14.80
2023-04-14T19:39:27.806Z,14.95
2023-04-14T19:41:54.960Z,15.00
2023-04-14T19:44:22.093Z,14.77
2023-04-14T19:46:49.224Z,14.94
2023-04-14T19:49:16.426Z,14.87
2023-04-14T19:51:43.817Z,14.82
2023-04-14T19:54:11.139Z,14.92
2023-04-14T19:56:38.338Z,15.02
2023-04-14T19:59:05.675Z,15.16
2023-04-14T20:01:32.778Z,14.78
2023-04-14T20:04:04.985Z,14.37
2023-04-14T20:06:36.185Z,14.12
2023-04-14T20:09:04.208Z,13.94
2023-04-14T20:11:31.906Z,13.87
2023-04-14T20:13:59.008Z,13.78
2023-04-14T20:16:26.779Z,13.80
2023-04-14T20:18:53.880Z,14.12
2023-04-14T20:21:20.960Z,13.89
2023-04-14T20:23:48.266Z,13.68
2023-04-14T20:26:16.587Z,13.21
2023-04-14T20:28:43.902Z,13.39
2023-04-14T20:31:11.765Z,13.33
2023-04-14T20:33:39.173Z,13.10
2023-04-14T20:36:07.162Z,12.67
2023-04-14T20:38:34.774Z,12.23
2023-04-14T20:41:02.023Z,12.19
2023-04-14T20:43:34.246Z,12.30
2023-04-14T20:46:01.722Z,12.06
2023-04-14T20:48:30.545Z,11.84
2023-04-14T20:50:58.011Z,11.94
2023-04-14T20:53:27.212Z,11.67
2023-04-14T20:55:55.065Z,11.58
2023-04-14T20:58:22.223Z,11.54
2023-04-14T21:00:49.508Z,11.41
2023-04-14T21:03:17.300Z,11.37
2023-04-14T21:05:44.561Z,11.31
2023-04-14T21:08:12.758Z,11.73
2023-04-14T21:11:02.210Z,11.77
2023-04-14T21:15:24.908Z,11.78
2023-04-14T21:16:15.868Z,11.62
2023-04-14T21:18:43.232Z,11.86
2023-04-14T21:21:11.582Z,11.87
2023-04-14T21:23:38.724Z,11.76
2023-04-14T21:26:06.215Z,11.72
2023-04-14T21:28:35.036Z,11.74
2023-04-14T21:31:03.104Z,11.73
2023-04-14T21:33:31.563Z,11.74
2023-04-14T21:35:59.119Z,11.79
2023-04-14T21:38:26.511Z,11.75
2023-04-14T21:40:53.785Z,11.83
2023-04-14T21:43:20.914Z,11.72
2023-04-14T21:45:48.238Z,11.72
2023-04-14T21:48:15.391Z,11.77
2023-04-14T21:50:43.571Z,11.74
2023-04-14T21:53:10.673Z,11.75
2023-04-14T21:55:38.302Z,11.63
2023-04-14T21:58:05.762Z,11.53
2023-04-14T22:00:32.959Z,11.29
2023-04-14T22:03:00.097Z,11.40
2023-04-14T22:05:27.344Z,11.53
2023-04-14T22:07:55.284Z,11.51
2023-04-14T22:10:23.219Z,11.27
2023-04-14T22:12:50.998Z,11.24
2023-04-14T22:15:18.159Z,11.16
2023-04-14T22:17:46.180Z,11.22
2023-04-14T22:20:14.092Z,11.61
2023-04-14T22:22:41.114Z,11.73
2023-04-14T22:25:09.870Z,11.59
2023-04-14T22:27:37.033Z,12.02
2023-04-14T22:30:36.172Z,11.93
2023-04-14T22:33:03.315Z,11.77
2023-04-14T22:35:31.099Z,11.77
2023-04-14T22:37:58.214Z,11.75
2023-04-14T22:40:25.272Z,12.03
2023-04-14T22:42:52.460Z,12.24
2023-04-14T22:45:19.517Z,12.61
2023-04-14T22:47:47.170Z,12.73
2023-04-14T22:50:14.589Z,13.09
2023-04-14T22:52:41.642Z,13.36
2023-04-14T22:56:18.073Z,13.26
2023-04-14T22:58:45.147Z,13.35
2023-04-14T23:01:21.975Z,13.62
2023-04-14T23:03:52.567Z,12.89
2023-04-14T23:06:20.664Z,13.19
2023-04-14T23:08:48.509Z,13.43
2023-04-14T23:11:19.776Z,13.63
2023-04-14T23:13:47.836Z,13.76
2023-04-14T23:16:16.919Z,13.99
2023-04-14T23:18:44.102Z,13.05
2023-04-14T23:22:19.942Z,13.68
2023-04-14T23:24:47.449Z,13.76
2023-04-14T23:27:14.550Z,13.84
2023-04-14T23:29:41.669Z,13.94
2023-04-14T23:32:09.547Z,13.40
2023-04-14T23:34:37.759Z,13.89
2023-04-14T23:37:05.609Z,13.90
2023-04-14T23:39:32.796Z,13.92
2023-04-14T23:42:00.722Z,14.00
2023-04-14T23:44:27.788Z,13.93
2023-04-14T23:46:55.459Z,14.08
2023-04-14T23:49:24.195Z,14.12
2023-04-14T23:51:59.459Z,14.15
2023-04-14T23:54:27.848Z,14.33
2023-04-14T23:56:54.986Z,14.35
2023-04-14T23:59:22.041Z,14.38
